Ursa, Illinois
Current Conditions -  °F | °C
As of 5:54 AM on Monday 24 Nov 2014 (Local Time) from KUIN Reporting Station
Overcast Overcast  
Wind Chill: 23°   Ceiling: 1900
Heat Index: 34°   Visibility: 10mi
Dew Point: 30°   Wind: 20mph
Humidity: 85%   Direction: 280°W
Pressure: 29.39"   Gusts: 28mph
Location:  40.07°N, 91.37°W
Report Text: KUIN 241154Z AUTO 28017G24KT 10SM OVC019 01/M01 A2939 RMK AO2 PK WND 27029/1126 UPB08E11SNE08 SLP955 P0000 60000 70071 T00111011 10044 20006 51030
Loading
Personal Weather Stations






























Interactive Weather Map New forecast layout! Learn more

10-Day Weather Forecast

Advertisements
Track Severe Weather on mobile